Oceanis — SVBC9 — position and weather

sailwx.info

Track history (hours):
 
Tides and Currents Weather Stations Pressure Air Temp Water Temp Dewpoint Dewpoint Depression Visibility Wind Speed Wind Dir Waves Ship Positions

Oceanis

Last reported at 2018-Mar-02 08:26 UTC. Time now 2018-Apr-19 13:48 UTC.
Position N 01°20' E 103°17'.
Warning: this ship's position is 48 days out of date.

Length 330 m; draft 11.1 m.

Type: Tanker. MMSI: 241089000.

Date/timePositionNaut miles runAvg speedWind from/ knotsBaromVisibWave heightAir tempDewpointWater temp
2018-Mar-02 08:26N 01°20' E 103°17'611.5
2018-Mar-02 07:55N 01°17' E 103°22'511.3
2018-Mar-02 07:30N 01°14' E 103°25'611.0
2018-Mar-02 06:56N 01°12' E 103°31'410.1
2018-Mar-02 06:30N 01°11' E 103°36'5 9.4
2018-Mar-02 06:00N 01°11' E 103°40'5 9.8
2018-Mar-02 05:30N 01°08' E 103°44'5 9.4
2018-Mar-02 05:00N 01°11' E 103°49'5 9.1
2018-Mar-02 04:30N 01°12' E 103°53'3 5.2
2018-Mar-02 03:58N 01°15' E 103°54'0 1.0
2018-Mar-02 03:30N 01°15' E 103°54'0 0.0
2018-Mar-02 02:57N 01°15' E 103°54'0 0.1
2018-Mar-02 02:18N 01°15' E 103°54'0 0.2
2018-Mar-02 01:57N 01°15' E 103°54'0 0.0
2018-Mar-02 01:21N 01°15' E 103°54'0 0.0
2018-Mar-02 01:00N 01°15' E 103°54'0 0.0
2018-Mar-02 00:27N 01°15' E 103°54'0 0.0
2018-Mar-02 00:00N 01°15' E 103°54'0 0.0
2018-Mar-01 23:30N 01°15' E 103°54'0 0.0
2018-Mar-01 23:00N 01°15' E 103°54'0 0.1
2018-Mar-01 22:12N 01°15' E 103°54'0 0.3
2018-Mar-01 22:00N 01°15' E 103°54'0 0.1
2018-Mar-01 21:30N 01°15' E 103°54'0 0.0
2018-Mar-01 20:54N 01°15' E 103°54'0 0.0
2018-Mar-01 19:45N 01°15' E 103°54'0 0.0
2018-Mar-01 19:27N 01°15' E 103°54'0 0.0
2018-Mar-01 19:00N 01°15' E 103°54'0 0.0
2018-Mar-01 18:30N 01°15' E 103°54'0 0.0
2018-Mar-01 17:57N 01°15' E 103°54'0 0.0
2018-Mar-01 17:30N 01°15' E 103°54'0 0.0
2018-Mar-01 16:48N 01°15' E 103°54'0 0.0
2018-Mar-01 16:24N 01°15' E 103°54'0 0.0
2018-Mar-01 16:00N 01°15' E 103°54'0 0.0
2018-Mar-01 15:27N 01°15' E 103°54'0 0.1
2018-Mar-01 14:42N 01°15' E 103°54'0 0.0
2018-Mar-01 14:30N 01°15' E 103°54'0 0.0
2018-Mar-01 13:57N 01°15' E 103°54'0 0.0
2018-Mar-01 13:30N 01°15' E 103°54'0 0.0
2018-Mar-01 13:00N 01°15' E 103°54'0 0.0
2018-Mar-01 12:27N 01°15' E 103°54'0 0.0
2018-Mar-01 11:57N 01°15' E 103°54'0 0.1
2018-Mar-01 11:21N 01°15' E 103°54'0 0.0
2018-Mar-01 10:54N 01°15' E 103°54'0 0.1
2018-Mar-01 10:27N 01°15' E 103°54'0 0.2
2018-Mar-01 09:57N 01°15' E 103°54'0 0.3
2018-Mar-01 09:27N 01°16' E 103°54'0 0.0
2018-Mar-01 09:00N 01°16' E 103°54'0 0.1
2018-Mar-01 08:27N 01°16' E 103°54'0 0.1
2018-Mar-01 07:48N 01°16' E 103°54'0 0.0
2018-Mar-01 07:24N 01°16' E 103°54'0 0.1
2018-Mar-01 06:57N 01°16' E 103°54'0 0.1
2018-Mar-01 06:29N 01°15' E 103°54'2 3.2
2018-Mar-01 05:57N 01°16' E 103°56'2 4.3
2018-Mar-01 05:30N 01°16' E 103°58'1 2.7
2018-Mar-01 04:59N 01°16' E 103°59'2 4.7
2018-Mar-01 04:30N 01°16' E 104°01'3 5.9
2018-Mar-01 03:59N 01°16' E 104°04'3 6.3
2018-Mar-01 03:29N 01°17' E 104°08'3 5.8
2018-Mar-01 02:55N 01°17' E 104°11'  
2018-Feb-22 12:31N 21°58' E 121°14'0 9.1
2018-Feb-22 12:30N 21°58' E 121°14'5 8.3
2018-Feb-22 11:53N 22°02' E 121°18'4 7.9
2018-Feb-22 11:24N 22°05' E 121°20'  
Track history (hours):
 
Tides and Currents Weather Stations Pressure Air Temp Water Temp Dewpoint Dewpoint Depression Visibility Wind Speed Wind Dir Waves Ship Positions

Oceanis

Last reported at 2018-Mar-02 08:26 UTC. Time now 2018-Apr-19 13:48 UTC.
Position N 01°20' E 103°17'.
Warning: this ship's position is 48 days out of date.

Length 330 m; draft 11.1 m.

Type: Tanker. MMSI: 241089000.

Date/timePositionNaut miles runAvg speedWind from/ knotsBaromVisibWave heightAir tempDewpointWater temp
2018-Mar-02 08:26N 01°20' E 103°17'611.5
2018-Mar-02 07:55N 01°17' E 103°22'511.3
2018-Mar-02 07:30N 01°14' E 103°25'611.0
2018-Mar-02 06:56N 01°12' E 103°31'410.1
2018-Mar-02 06:30N 01°11' E 103°36'5 9.4
2018-Mar-02 06:00N 01°11' E 103°40'5 9.8
2018-Mar-02 05:30N 01°08' E 103°44'5 9.4
2018-Mar-02 05:00N 01°11' E 103°49'5 9.1
2018-Mar-02 04:30N 01°12' E 103°53'3 5.2
2018-Mar-02 03:58N 01°15' E 103°54'0 1.0
2018-Mar-02 03:30N 01°15' E 103°54'0 0.0
2018-Mar-02 02:57N 01°15' E 103°54'0 0.1
2018-Mar-02 02:18N 01°15' E 103°54'0 0.2
2018-Mar-02 01:57N 01°15' E 103°54'0 0.0
2018-Mar-02 01:21N 01°15' E 103°54'0 0.0
2018-Mar-02 01:00N 01°15' E 103°54'0 0.0
2018-Mar-02 00:27N 01°15' E 103°54'0 0.0
2018-Mar-02 00:00N 01°15' E 103°54'0 0.0
2018-Mar-01 23:30N 01°15' E 103°54'0 0.0
2018-Mar-01 23:00N 01°15' E 103°54'0 0.1
2018-Mar-01 22:12N 01°15' E 103°54'0 0.3
2018-Mar-01 22:00N 01°15' E 103°54'0 0.1
2018-Mar-01 21:30N 01°15' E 103°54'0 0.0
2018-Mar-01 20:54N 01°15' E 103°54'0 0.0
2018-Mar-01 19:45N 01°15' E 103°54'0 0.0
2018-Mar-01 19:27N 01°15' E 103°54'0 0.0
2018-Mar-01 19:00N 01°15' E 103°54'0 0.0
2018-Mar-01 18:30N 01°15' E 103°54'0 0.0
2018-Mar-01 17:57N 01°15' E 103°54'0 0.0
2018-Mar-01 17:30N 01°15' E 103°54'0 0.0
2018-Mar-01 16:48N 01°15' E 103°54'0 0.0
2018-Mar-01 16:24N 01°15' E 103°54'0 0.0
2018-Mar-01 16:00N 01°15' E 103°54'0 0.0
2018-Mar-01 15:27N 01°15' E 103°54'0 0.1
2018-Mar-01 14:42N 01°15' E 103°54'0 0.0
2018-Mar-01 14:30N 01°15' E 103°54'0 0.0
2018-Mar-01 13:57N 01°15' E 103°54'0 0.0
2018-Mar-01 13:30N 01°15' E 103°54'0 0.0
2018-Mar-01 13:00N 01°15' E 103°54'0 0.0
2018-Mar-01 12:27N 01°15' E 103°54'0 0.0
2018-Mar-01 11:57N 01°15' E 103°54'0 0.1
2018-Mar-01 11:21N 01°15' E 103°54'0 0.0
2018-Mar-01 10:54N 01°15' E 103°54'0 0.1
2018-Mar-01 10:27N 01°15' E 103°54'0 0.2
2018-Mar-01 09:57N 01°15' E 103°54'0 0.3
2018-Mar-01 09:27N 01°16' E 103°54'0 0.0
2018-Mar-01 09:00N 01°16' E 103°54'0 0.1
2018-Mar-01 08:27N 01°16' E 103°54'0 0.1
2018-Mar-01 07:48N 01°16' E 103°54'0 0.0
2018-Mar-01 07:24N 01°16' E 103°54'0 0.1
2018-Mar-01 06:57N 01°16' E 103°54'0 0.1
2018-Mar-01 06:29N 01°15' E 103°54'2 3.2
2018-Mar-01 05:57N 01°16' E 103°56'2 4.3
2018-Mar-01 05:30N 01°16' E 103°58'1 2.7
2018-Mar-01 04:59N 01°16' E 103°59'2 4.7
2018-Mar-01 04:30N 01°16' E 104°01'3 5.9
2018-Mar-01 03:59N 01°16' E 104°04'3 6.3
2018-Mar-01 03:29N 01°17' E 104°08'3 5.8
2018-Mar-01 02:55N 01°17' E 104°11'  
2018-Feb-22 12:31N 21°58' E 121°14'0 9.1
2018-Feb-22 12:30N 21°58' E 121°14'5 8.3
2018-Feb-22 11:53N 22°02' E 121°18'4 7.9
2018-Feb-22 11:24N 22°05' E 121°20'  

Dump ship's entire track history